createdAt,value
2022-09-23T00:02:28.038Z,9.31
2022-09-23T00:05:33.352Z,9.46
2022-09-23T00:08:38.019Z,9.56
2022-09-23T00:11:41.571Z,9.38
2022-09-23T00:14:45.477Z,9.30
2022-09-23T00:17:49.149Z,9.22
2022-09-23T00:20:53.772Z,9.30
2022-09-23T00:23:57.457Z,9.28
2022-09-23T00:27:02.113Z,9.39
2022-09-23T00:30:08.329Z,9.63
2022-09-23T00:33:12.457Z,9.83
2022-09-23T00:36:16.922Z,10.00
2022-09-23T00:39:20.844Z,10.06
2022-09-23T00:42:25.207Z,10.30
2022-09-23T00:45:29.927Z,10.52
2022-09-23T00:48:33.584Z,10.71
2022-09-23T00:51:53.112Z,10.88
2022-09-23T00:54:59.343Z,11.03
2022-09-23T00:58:06.479Z,11.22
2022-09-23T01:01:10.072Z,11.39
2022-09-23T01:04:15.243Z,11.49
2022-09-23T01:07:19.613Z,11.95
2022-09-23T01:10:23.845Z,12.44
2022-09-23T01:13:55.854Z,13.22
2022-09-23T01:17:16.865Z,13.50
2022-09-23T01:20:56.388Z,13.86
2022-09-23T01:24:36.230Z,14.02
2022-09-23T01:27:51.479Z,14.12
2022-09-23T01:31:13.261Z,14.79
2022-09-23T01:34:26.481Z,15.50
2022-09-23T01:37:45.531Z,15.67
2022-09-23T01:41:25.592Z,16.17
2022-09-23T01:44:53.865Z,16.08
2022-09-23T01:48:43.120Z,15.87
2022-09-23T01:51:54.689Z,16.22
2022-09-23T01:55:20.683Z,16.66
2022-09-23T01:58:57.866Z,16.60
2022-09-23T02:02:04.846Z,16.76
2022-09-23T02:05:33.486Z,17.52
2022-09-23T02:08:45.497Z,17.13
2022-09-23T02:11:51.921Z,16.38
2022-09-23T02:15:31.345Z,16.16
2022-09-23T02:18:42.667Z,15.90
2022-09-23T02:21:49.698Z,16.19
2022-09-23T02:24:55.165Z,16.54
2022-09-23T02:28:08.625Z,17.91
2022-09-23T02:31:22.187Z,19.92
2022-09-23T02:34:44.225Z,21.35
2022-09-23T02:37:59.806Z,22.08
2022-09-23T02:41:34.627Z,22.64
2022-09-23T02:44:38.247Z,23.16
2022-09-23T02:47:45.142Z,23.61
2022-09-23T02:50:49.496Z,23.88
2022-09-23T02:53:59.331Z,24.27
2022-09-23T02:57:06.096Z,24.45
2022-09-23T03:00:10.554Z,24.84
2022-09-23T03:03:45.031Z,25.62
2022-09-23T03:07:09.270Z,25.11
2022-09-23T03:10:18.157Z,25.31
2022-09-23T03:13:52.047Z,25.91
2022-09-23T03:17:25.634Z,26.40
2022-09-23T03:20:55.614Z,26.23
2022-09-23T03:24:03.366Z,26.35
2022-09-23T03:27:14.585Z,26.55
2022-09-23T03:30:19.610Z,26.39
2022-09-23T03:33:29.004Z,27.52
2022-09-23T03:36:52.550Z,27.37
2022-09-23T03:40:02.608Z,27.13
2022-09-23T03:43:05.628Z,26.55
2022-09-23T03:46:09.501Z,26.89
2022-09-23T03:49:19.124Z,26.68
2022-09-23T03:52:24.081Z,26.35
2022-09-23T03:55:27.277Z,25.98
2022-09-23T03:58:30.385Z,24.57
2022-09-23T04:01:33.901Z,22.85
2022-09-23T04:04:38.291Z,22.95
2022-09-23T04:07:42.241Z,22.06
2022-09-23T04:10:46.904Z,21.65
2022-09-23T04:13:51.223Z,20.75
2022-09-23T04:16:54.794Z,20.25
2022-09-23T04:19:58.698Z,20.37
2022-09-23T04:23:02.103Z,21.31
2022-09-23T04:26:06.904Z,21.77
2022-09-23T04:29:12.481Z,21.83
2022-09-23T04:32:16.331Z,22.00
2022-09-23T04:35:20.331Z,22.73
2022-09-23T04:38:23.807Z,22.57
2022-09-23T04:41:27.362Z,22.75
2022-09-23T04:44:31.097Z,22.35
2022-09-23T04:47:34.624Z,22.23
2022-09-23T04:50:39.137Z,21.87
2022-09-23T04:53:45.557Z,21.82
2022-09-23T04:56:49.015Z,21.74
2022-09-23T04:59:52.696Z,21.32
2022-09-23T05:02:56.152Z,21.08
2022-09-23T05:06:00.405Z,21.24
2022-09-23T05:09:09.156Z,21.62
2022-09-23T05:12:12.880Z,21.41
2022-09-23T05:15:17.027Z,21.50
2022-09-23T05:18:20.988Z,21.53
2022-09-23T05:21:27.710Z,21.66
2022-09-23T05:24:31.228Z,21.27
2022-09-23T05:27:34.721Z,22.03
2022-09-23T05:30:38.232Z,22.23
2022-09-23T05:33:42.948Z,22.88
2022-09-23T05:36:46.356Z,23.05
2022-09-23T05:39:50.273Z,22.83
2022-09-23T05:42:53.707Z,23.00
2022-09-23T05:46:12.078Z,22.83
2022-09-23T05:49:15.670Z,22.72
2022-09-23T05:52:19.517Z,22.63
2022-09-23T05:55:22.982Z,22.95
2022-09-23T05:58:26.888Z,22.71
2022-09-23T06:01:35.718Z,22.06
2022-09-23T06:04:39.694Z,22.23
2022-09-23T06:07:43.219Z,22.65
2022-09-23T06:10:53.555Z,23.72
2022-09-23T06:14:02.919Z,22.78
2022-09-23T06:17:07.360Z,21.75
2022-09-23T06:20:11.730Z,21.30
2022-09-23T06:23:15.530Z,21.13
2022-09-23T06:26:19.131Z,21.10
2022-09-23T06:29:22.930Z,21.04
2022-09-23T06:32:26.534Z,21.01
2022-09-23T06:35:33.362Z,20.62
2022-09-23T06:38:40.833Z,20.37
2022-09-23T06:41:46.271Z,20.20
2022-09-23T06:44:49.803Z,20.31
2022-09-23T06:47:58.704Z,20.75
2022-09-23T06:51:04.545Z,20.89
2022-09-23T06:54:08.948Z,20.71
2022-09-23T06:57:12.420Z,20.39
2022-09-23T07:00:16.428Z,20.15
2022-09-23T07:03:21.391Z,19.83
2022-09-23T07:06:25.200Z,19.55
2022-09-23T07:09:28.645Z,19.56
2022-09-23T07:12:35.593Z,19.55
2022-09-23T07:15:39.180Z,19.67
2022-09-23T07:18:43.535Z,19.73
2022-09-23T07:21:47.104Z,19.69
2022-09-23T07:24:51.036Z,19.51
2022-09-23T07:27:56.842Z,19.64
2022-09-23T07:31:07.664Z,19.62
2022-09-23T07:34:14.627Z,20.21
2022-09-23T07:37:19.286Z,20.27
2022-09-23T07:40:24.085Z,20.34
2022-09-23T07:43:31.015Z,20.85
2022-09-23T07:46:36.588Z,21.20
2022-09-23T07:49:40.873Z,21.28
2022-09-23T07:52:44.650Z,21.38
2022-09-23T07:55:56.993Z,20.55
2022-09-23T07:59:00.872Z,20.19
2022-09-23T08:02:05.115Z,19.91
2022-09-23T08:05:09.976Z,19.77
2022-09-23T08:08:14.994Z,19.68
2022-09-23T08:11:18.883Z,19.59
2022-09-23T08:14:26.348Z,19.45
2022-09-23T08:17:29.897Z,19.55
2022-09-23T08:20:47.430Z,19.67
2022-09-23T08:23:52.407Z,19.68
2022-09-23T08:26:56.446Z,19.71
2022-09-23T08:30:00.161Z,19.78
2022-09-23T08:33:04.060Z,19.81
2022-09-23T08:36:08.419Z,19.92
2022-09-23T08:39:20.217Z,20.20
2022-09-23T08:42:32.876Z,20.56
2022-09-23T08:45:39.442Z,20.76
2022-09-23T08:48:46.927Z,20.94
2022-09-23T08:51:52.354Z,20.92
2022-09-23T08:54:56.994Z,21.45
2022-09-23T08:58:25.958Z,21.33
2022-09-23T09:01:42.204Z,21.14
2022-09-23T09:04:53.005Z,20.96
2022-09-23T09:07:59.910Z,20.87
2022-09-23T09:11:04.152Z,20.79
2022-09-23T09:14:26.355Z,21.91
2022-09-23T09:18:10.677Z,21.31
2022-09-23T09:21:15.564Z,20.71
2022-09-23T09:24:27.877Z,20.45
2022-09-23T09:27:32.100Z,20.19
2022-09-23T09:30:36.539Z,20.05
2022-09-23T09:33:52.181Z,20.18
2022-09-23T09:37:06.993Z,20.06
2022-09-23T09:40:17.907Z,19.88
2022-09-23T09:43:24.930Z,19.74
2022-09-23T09:46:50.404Z,19.65
2022-09-23T09:50:05.470Z,19.53
2022-09-23T09:53:30.255Z,19.42
2022-09-23T09:56:36.654Z,19.31
2022-09-23T09:59:44.083Z,19.21
2022-09-23T10:02:52.939Z,19.14
2022-09-23T10:05:58.763Z,19.05
2022-09-23T10:09:19.626Z,19.03
2022-09-23T10:12:26.052Z,18.89
2022-09-23T10:15:33.710Z,18.80
2022-09-23T10:18:49.417Z,18.79
2022-09-23T10:21:57.440Z,18.70
2022-09-23T10:25:08.312Z,18.67
2022-09-23T10:28:47.745Z,18.69
2022-09-23T10:32:16.197Z,18.69
2022-09-23T10:35:24.867Z,18.66
2022-09-23T10:38:28.881Z,18.61
2022-09-23T10:42:22.920Z,18.60
2022-09-23T10:45:53.942Z,18.57
2022-09-23T10:49:10.446Z,18.60
2022-09-23T10:52:41.063Z,18.60
2022-09-23T10:56:07.865Z,18.55
2022-09-23T10:59:19.625Z,18.54
2022-09-23T11:02:29.564Z,18.49
2022-09-23T11:05:47.312Z,18.46
2022-09-23T11:08:58.140Z,18.39
2022-09-23T11:12:07.888Z,18.40
2022-09-23T11:15:30.606Z,18.41
2022-09-23T11:18:46.653Z,18.38
2022-09-23T11:22:08.788Z,18.36
2022-09-23T11:25:39.351Z,18.31
2022-09-23T11:29:27.759Z,18.28
2022-09-23T11:32:56.438Z,18.24
2022-09-23T11:36:06.350Z,18.17
2022-09-23T11:39:26.077Z,18.13
2022-09-23T11:42:37.516Z,18.14
2022-09-23T11:46:21.519Z,18.17
2022-09-23T11:49:51.381Z,18.05
2022-09-23T11:53:15.850Z,17.88
2022-09-23T11:56:34.235Z,17.77
2022-09-23T11:59:50.264Z,17.63
2022-09-23T12:03:12.646Z,17.63
2022-09-23T12:06:37.687Z,17.61
2022-09-23T12:09:58.251Z,17.58
2022-09-23T12:13:33.247Z,17.58
2022-09-23T12:16:37.504Z,17.52
2022-09-23T12:20:08.325Z,17.48
2022-09-23T12:23:47.727Z,17.36
2022-09-23T12:27:00.136Z,17.28
2022-09-23T12:30:13.219Z,17.27
2022-09-23T12:33:34.171Z,17.25
2022-09-23T12:36:40.676Z,17.14
2022-09-23T12:39:47.559Z,17.08
2022-09-23T12:42:52.571Z,17.04
2022-09-23T12:46:19.944Z,17.03
2022-09-23T12:49:26.579Z,17.00
2022-09-23T12:52:35.448Z,17.00
2022-09-23T12:55:45.413Z,16.93
2022-09-23T12:58:48.681Z,16.92
2022-09-23T13:01:53.037Z,16.90
2022-09-23T13:05:26.795Z,16.96
2022-09-23T13:08:30.688Z,16.92
2022-09-23T13:11:37.630Z,16.89
2022-09-23T13:14:46.447Z,16.92
2022-09-23T13:17:50.213Z,16.92
2022-09-23T13:20:57.772Z,17.01
2022-09-23T13:24:13.615Z,16.99
2022-09-23T13:27:22.956Z,16.97
2022-09-23T13:30:27.350Z,16.91
2022-09-23T13:33:57.915Z,16.94
2022-09-23T13:37:23.168Z,16.90
2022-09-23T13:40:30.117Z,16.85
2022-09-23T13:43:41.613Z,16.85
2022-09-23T13:46:49.514Z,16.87
2022-09-23T13:49:54.286Z,16.90
2022-09-23T13:53:01.844Z,16.90
2022-09-23T13:56:14.608Z,16.85
2022-09-23T13:59:28.938Z,16.85
2022-09-23T14:02:32.887Z,16.81
2022-09-23T14:05:39.577Z,16.77
2022-09-23T14:08:47.435Z,16.77
2022-09-23T14:11:52.954Z,16.74
2022-09-23T14:14:57.699Z,16.71
2022-09-23T14:18:07.410Z,16.69
2022-09-23T14:21:35.304Z,16.72
2022-09-23T14:24:39.408Z,16.65
2022-09-23T14:27:44.435Z,16.63
2022-09-23T14:30:50.611Z,16.61
2022-09-23T14:33:53.810Z,16.58
2022-09-23T14:37:15.772Z,16.55
2022-09-23T14:40:23.873Z,16.52
2022-09-23T14:43:30.873Z,16.47
2022-09-23T14:46:37.571Z,16.41
2022-09-23T14:50:08.710Z,16.38
2022-09-23T14:53:24.429Z,16.36
2022-09-23T14:56:28.444Z,16.35
2022-09-23T14:59:37.083Z,16.34
2022-09-23T15:02:44.561Z,16.31
2022-09-23T15:05:50.162Z,16.16
2022-09-23T15:08:55.900Z,16.13
2022-09-23T15:12:12.684Z,16.12
2022-09-23T15:15:16.724Z,16.05
2022-09-23T15:18:24.172Z,16.02
2022-09-23T15:21:42.681Z,15.94
2022-09-23T15:24:47.148Z,15.87
2022-09-23T15:28:25.835Z,15.84
2022-09-23T15:31:29.511Z,15.74
2022-09-23T15:34:33.270Z,15.70
2022-09-23T15:37:37.082Z,15.66
2022-09-23T15:40:40.896Z,15.61
2022-09-23T15:43:45.612Z,15.51
2022-09-23T15:46:51.218Z,15.48
2022-09-23T15:49:54.512Z,15.40
2022-09-23T15:52:58.122Z,15.43
2022-09-23T15:56:01.441Z,15.40
2022-09-23T15:59:05.596Z,15.31
2022-09-23T16:02:19.327Z,15.26
2022-09-23T16:05:49.467Z,15.27
2022-09-23T16:08:54.076Z,15.23
2022-09-23T16:11:58.170Z,15.20
2022-09-23T16:15:02.621Z,15.21
2022-09-23T16:18:07.554Z,15.22
2022-09-23T16:21:14.289Z,15.17
2022-09-23T16:24:19.413Z,15.14
2022-09-23T16:27:23.953Z,15.14
2022-09-23T16:30:30.483Z,15.03
2022-09-23T16:33:34.973Z,14.91
2022-09-23T16:36:41.980Z,14.87
2022-09-23T16:39:46.655Z,14.67
2022-09-23T16:42:52.825Z,14.55
2022-09-23T16:45:57.407Z,14.47
2022-09-23T16:49:01.851Z,14.40
2022-09-23T16:52:06.267Z,14.37
2022-09-23T16:55:11.140Z,14.42
2022-09-23T16:58:16.195Z,14.29
2022-09-23T17:01:48.742Z,14.28
2022-09-23T17:04:53.256Z,14.25
2022-09-23T17:07:57.955Z,14.23
2022-09-23T17:11:02.168Z,14.16
2022-09-23T17:14:07.423Z,14.15
2022-09-23T17:17:11.540Z,14.15
2022-09-23T17:20:15.412Z,14.18
2022-09-23T17:23:20.500Z,14.18
2022-09-23T17:26:27.039Z,14.18
2022-09-23T17:29:31.138Z,14.12
2022-09-23T17:32:35.031Z,14.14
2022-09-23T17:35:44.251Z,14.12
2022-09-23T17:38:49.706Z,14.14
2022-09-23T17:41:56.472Z,14.17
2022-09-23T17:45:00.353Z,14.16
2022-09-23T17:48:04.526Z,14.16
2022-09-23T17:51:19.293Z,14.15
2022-09-23T17:54:23.693Z,14.11
2022-09-23T17:57:27.419Z,14.07
2022-09-23T18:00:31.511Z,14.02
2022-09-23T18:03:34.848Z,14.02
2022-09-23T18:06:39.272Z,14.06
2022-09-23T18:09:42.993Z,14.11
2022-09-23T18:12:47.044Z,14.16
2022-09-23T18:15:50.252Z,14.11
2022-09-23T18:19:00.089Z,14.09
2022-09-23T18:22:03.907Z,14.03
2022-09-23T18:25:28.621Z,14.05
2022-09-23T18:28:34.672Z,14.03
2022-09-23T18:31:39.685Z,13.99
2022-09-23T18:34:43.381Z,14.01
2022-09-23T18:37:47.492Z,13.99
2022-09-23T18:40:56.683Z,14.02
2022-09-23T18:44:00.929Z,13.93
2022-09-23T18:47:04.724Z,13.89
2022-09-23T18:50:30.096Z,13.83
2022-09-23T18:53:34.853Z,13.86
2022-09-23T18:56:43.831Z,13.91
2022-09-23T18:59:47.771Z,13.88
2022-09-23T19:02:53.727Z,13.84
2022-09-23T19:06:08.107Z,13.87
2022-09-23T19:09:12.570Z,13.88
2022-09-23T19:12:16.207Z,13.86
2022-09-23T19:15:19.235Z,13.81
2022-09-23T19:18:22.297Z,13.75
2022-09-23T19:21:25.635Z,13.65
2022-09-23T19:24:29.311Z,13.53
2022-09-23T19:27:35.469Z,13.47
2022-09-23T19:30:39.422Z,13.43
2022-09-23T19:33:48.573Z,13.44
2022-09-23T19:36:59.686Z,13.36
2022-09-23T19:40:03.607Z,13.38
2022-09-23T19:43:07.046Z,13.34
2022-09-23T19:46:11.044Z,13.34
2022-09-23T19:49:14.832Z,13.33
2022-09-23T19:52:19.007Z,13.26
2022-09-23T19:55:22.728Z,13.24
2022-09-23T19:58:27.345Z,13.32
2022-09-23T20:01:32.451Z,13.50
2022-09-23T20:04:36.531Z,13.53
2022-09-23T20:07:44.033Z,13.53
2022-09-23T20:10:49.025Z,13.54
2022-09-23T20:14:02.075Z,13.56
2022-09-23T20:17:06.040Z,13.47
2022-09-23T20:20:11.475Z,13.43
2022-09-23T20:23:15.001Z,13.43
2022-09-23T20:26:37.011Z,13.43
2022-09-23T20:29:40.731Z,13.45
2022-09-23T20:32:44.987Z,13.51
2022-09-23T20:35:52.500Z,13.52
2022-09-23T20:39:03.460Z,13.59
2022-09-23T20:42:09.794Z,13.67
2022-09-23T20:45:12.891Z,13.75
2022-09-23T20:48:16.027Z,13.78
2022-09-23T20:51:19.060Z,13.78
2022-09-23T20:54:23.629Z,13.82
2022-09-23T20:57:28.266Z,13.81
2022-09-23T21:00:32.398Z,13.78
2022-09-23T21:03:36.140Z,13.75
2022-09-23T21:06:40.672Z,13.81
2022-09-23T21:09:44.372Z,13.79
2022-09-23T21:12:51.342Z,13.84
2022-09-23T21:15:54.965Z,13.83
2022-09-23T21:18:59.665Z,13.79
2022-09-23T21:22:03.199Z,13.64
2022-09-23T21:28:35.784Z,13.60
2022-09-23T21:31:39.793Z,13.62
2022-09-23T21:34:43.439Z,13.59
2022-09-23T21:37:47.625Z,13.66
2022-09-23T21:41:01.624Z,13.69
2022-09-23T21:44:07.499Z,13.66
2022-09-23T21:47:10.491Z,13.63
2022-09-23T21:50:13.827Z,13.65
2022-09-23T21:53:18.313Z,13.53
2022-09-23T21:56:24.702Z,13.48
2022-09-23T21:59:28.517Z,13.47
2022-09-23T22:02:32.529Z,13.48
2022-09-23T22:05:37.769Z,13.48
2022-09-23T22:08:44.480Z,13.55
2022-09-23T22:12:08.263Z,13.55
2022-09-23T22:15:12.204Z,13.53
2022-09-23T22:18:15.453Z,13.43
2022-09-23T22:21:21.040Z,13.34
2022-09-23T22:24:24.880Z,13.29
2022-09-23T22:27:28.855Z,13.32
2022-09-23T22:30:50.354Z,13.40
2022-09-23T22:33:54.305Z,13.31
2022-09-23T22:36:59.762Z,13.30
2022-09-23T22:40:07.297Z,13.24
2022-09-23T22:43:10.997Z,13.15
2022-09-23T22:46:17.098Z,13.23
2022-09-23T22:49:20.866Z,13.24
2022-09-23T22:52:27.617Z,13.23
2022-09-23T22:55:31.366Z,13.23
2022-09-23T22:58:35.544Z,13.26
2022-09-23T23:01:39.518Z,13.24
2022-09-23T23:04:46.141Z,13.20
2022-09-23T23:07:49.879Z,13.23
2022-09-23T23:10:55.817Z,13.23
2022-09-23T23:14:01.805Z,13.28
2022-09-23T23:17:08.352Z,13.36
2022-09-23T23:20:11.999Z,13.36
2022-09-23T23:23:15.921Z,13.40
2022-09-23T23:26:22.594Z,13.45
2022-09-23T23:29:25.888Z,13.46
2022-09-23T23:32:28.846Z,13.49
2022-09-23T23:35:32.142Z,13.51
2022-09-23T23:38:39.928Z,13.57
2022-09-23T23:41:43.953Z,13.55
2022-09-23T23:44:47.210Z,13.58
2022-09-23T23:47:50.678Z,13.65
2022-09-23T23:50:55.343Z,13.77
2022-09-23T23:54:00.485Z,13.90
2022-09-23T23:57:03.485Z,13.90
